Time;durP1;ratioP1;P1;durP2;ratioP2;P2;SDS_P1;SDS_P2;PMS_P1;PMS_P2;Temp;Humidity;BMP_temperature;BMP_pressure;BME280_temperature;BME280_humidity;BME280_pressure;Samples;Min_cycle;Max_cycle;Signal;HPM_P1;HPM_P2
2022/08/03 05:16:28;;;;;;;;;;;18.60;99.90;;;;;;6240374;22;19969;-69
2022/08/03 05:22:38;;;;;;;;;;;18.70;99.90;;;;;;6246172;22;19922;-71
2022/08/03 05:25:59;;;;;;;;;;;18.80;99.90;;;;;;6197909;23;19911;-75
2022/08/03 05:28:55;;;;;;;;;;;;;;;;;;;;;
2022/08/03 05:31:42;;;;;;;;;;;19.10;99.90;;;;;;6246321;22;19987;-78
2022/08/03 05:34:08;;;;;;;;;;;19.20;99.90;;;;;;6194985;23;20314;-73
2022/08/03 05:36:33;;;;;;;;;;;19.20;99.90;;;;;;6246677;23;19965;-72
2022/08/03 05:39:05;;;;;;;;;;;19.30;99.90;;;;;;6220042;23;20230;-73
2022/08/03 05:41:31;;;;;;;;;;;19.40;99.90;;;;;;6220368;23;19915;-76
2022/08/03 05:44:25;;;;;;;;;;;19.60;99.90;;;;;;6196073;23;19947;-74
2022/08/03 05:47:02;;;;;;;;;;;;;;;;;;;;;
2022/08/03 15:16:16;;;;;;;;;;;30.30;99.90;;;;;;6247591;22;19986;-74
2022/08/03 18:10:33;;;;;;;;;;;22.60;99.90;;;;;;6209421;22;19916;-75
2022/08/03 18:13:08;;;;;;;;;;;22.60;99.90;;;;;;6185268;23;19939;-67
2022/08/03 18:15:57;;;;;;;;;;;22.50;99.90;;;;;;6159938;23;20003;-68
2022/08/03 18:18:28;;;;;;;;;;;22.50;99.90;;;;;;6159628;23;19943;-67
2022/08/03 18:20:54;;;;;;;;;;;22.50;99.90;;;;;;6159887;23;20273;-67
2022/08/03 18:23:21;;;;;;;;;;;22.40;99.90;;;;;;6185658;23;19947;-69
2022/08/03 18:25:46;;;;;;;;;;;22.40;99.90;;;;;;6159901;23;19943;-69
2022/08/03 18:28:13;;;;;;;;;;;22.30;99.90;;;;;;6135040;23;19916;-69
2022/08/03 18:30:41;;;;;;;;;;;22.30;99.90;;;;;;6135222;23;19922;-69
2022/08/03 18:33:07;;;;;;;;;;;22.30;99.90;;;;;;6159187;23;19947;-67
2022/08/03 18:35:34;;;;;;;;;;;22.30;99.90;;;;;;6186069;23;19919;-67
2022/08/03 18:38:01;;;;;;;;;;;22.20;99.90;;;;;;6159634;23;20323;-67
2022/08/03 18:40:27;;;;;;;;;;;22.10;99.90;;;;;;6185777;23;19912;-67
2022/08/03 18:42:52;;;;;;;;;;;22.10;99.90;;;;;;6135100;23;20338;-67
2022/08/03 18:45:18;;;;;;;;;;;22.00;99.90;;;;;;6185928;23;19916;-68
2022/08/03 18:48:07;;;;;;;;;;;21.90;99.90;;;;;;6135144;23;20246;-69
2022/08/03 18:50:34;;;;;;;;;;;21.90;99.90;;;;;;6144345;23;20355;-69
2022/08/03 18:53:07;;;;;;;;;;;21.90;99.90;;;;;;6135251;23;19923;-69
2022/08/03 18:55:34;;;;;;;;;;;21.80;99.90;;;;;;6135555;23;20252;-69
2022/08/03 18:58:09;;;;;;;;;;;21.70;99.90;;;;;;6159556;23;19923;-68
2022/08/03 19:00:37;;;;;;;;;;;21.70;99.90;;;;;;6160199;23;19922;-69
2022/08/03 19:03:11;;;;;;;;;;;21.70;99.90;;;;;;6186271;23;20226;-69
2022/08/03 19:05:50;;;;;;;;;;;21.70;99.90;;;;;;6160468;23;19916;-69
2022/08/03 19:08:18;;;;;;;;;;;21.60;99.90;;;;;;6159988;23;19916;-69
2022/08/03 19:10:47;;;;;;;;;;;21.60;99.90;;;;;;6162551;23;19927;-69
2022/08/03 19:13:22;;;;;;;;;;;21.50;99.90;;;;;;6189788;23;19916;-69
2022/08/03 19:15:49;;;;;;;;;;;21.50;99.90;;;;;;6216470;23;20203;-69
2022/08/03 19:18:15;;;;;;;;;;;21.50;99.90;;;;;;6164892;23;19916;-69
2022/08/03 19:20:42;;;;;;;;;;;21.40;99.90;;;;;;6216316;23;19916;-69
2022/08/03 19:23:10;;;;;;;;;;;21.40;99.90;;;;;;6189784;23;20334;-69
2022/08/03 19:25:39;;;;;;;;;;;21.40;99.90;;;;;;6189774;23;19916;-69
2022/08/03 19:28:05;;;;;;;;;;;21.40;99.90;;;;;;6189772;23;19951;-69
2022/08/03 19:30:36;;;;;;;;;;;21.30;99.90;;;;;;6189651;23;19916;-69
2022/08/03 19:33:03;;;;;;;;;;;21.30;99.90;;;;;;6189969;23;19986;-69
2022/08/03 19:35:29;;;;;;;;;;;21.20;99.90;;;;;;6216479;23;20239;-69
2022/08/03 19:37:55;;;;;;;;;;;21.30;99.90;;;;;;6166729;23;19977;-68
2022/08/03 19:40:20;;;;;;;;;;;21.20;99.90;;;;;;6166052;23;19956;-68
2022/08/03 19:42:49;;;;;;;;;;;21.10;99.90;;;;;;6190892;23;19915;-68
2022/08/03 19:45:16;;;;;;;;;;;21.10;99.90;;;;;;6217989;23;19920;-68
2022/08/03 19:47:46;;;;;;;;;;;21.10;99.90;;;;;;6191447;23;19916;-69
2022/08/03 19:50:12;;;;;;;;;;;21.10;99.90;;;;;;6191260;23;20200;-69
2022/08/03 19:52:38;;;;;;;;;;;21.00;99.90;;;;;;6191027;23;19922;-69
2022/08/03 19:55:05;;;;;;;;;;;21.00;99.90;;;;;;6166209;23;19959;-68
2022/08/03 19:57:32;;;;;;;;;;;21.00;99.90;;;;;;6166035;23;19943;-69
2022/08/03 19:59:58;;;;;;;;;;;20.90;99.90;;;;;;6191516;23;19923;-68
2022/08/03 20:02:24;;;;;;;;;;;20.90;99.90;;;;;;6217734;23;19920;-69
2022/08/03 20:04:50;;;;;;;;;;;20.90;99.90;;;;;;6191090;23;19962;-69
2022/08/03 20:07:15;;;;;;;;;;;20.90;99.90;;;;;;6166186;23;19982;-69
2022/08/03 20:09:42;;;;;;;;;;;20.80;99.90;;;;;;6166162;23;19916;-69
2022/08/03 20:12:08;;;;;;;;;;;20.70;99.90;;;;;;6190839;23;19916;-69
2022/08/03 20:14:34;;;;;;;;;;;20.70;99.90;;;;;;6191094;23;19920;-69
2022/08/03 20:17:03;;;;;;;;;;;20.60;99.90;;;;;;6166356;23;19995;-69
2022/08/03 20:19:28;;;;;;;;;;;20.60;99.90;;;;;;6165891;23;19916;-69
2022/08/03 20:21:54;;;;;;;;;;;20.50;99.90;;;;;;6190724;23;20208;-69
2022/08/03 20:24:27;;;;;;;;;;;20.50;99.90;;;;;;6191098;23;19950;-66
2022/08/03 20:26:53;;;;;;;;;;;20.50;99.90;;;;;;6191372;23;20099;-68
2022/08/03 20:29:24;;;;;;;;;;;20.50;99.90;;;;;;6191141;23;19969;-69
2022/08/03 20:31:49;;;;;;;;;;;20.40;99.90;;;;;;6191410;23;19916;-67
2022/08/03 20:34:15;;;;;;;;;;;20.40;99.90;;;;;;6190717;23;19923;-68
2022/08/03 20:36:40;;;;;;;;;;;20.40;99.90;;;;;;6190427;23;19922;-70
2022/08/03 20:39:06;;;;;;;;;;;20.40;99.90;;;;;;6217268;23;19959;-68
2022/08/03 20:41:31;;;;;;;;;;;20.30;99.90;;;;;;6166004;23;20008;-69
2022/08/03 20:43:59;;;;;;;;;;;20.30;99.90;;;;;;6190869;23;19916;-72
2022/08/03 20:46:25;;;;;;;;;;;20.30;99.90;;;;;;6190348;23;19923;-71
2022/08/03 20:48:51;;;;;;;;;;;20.20;99.90;;;;;;6216998;23;19916;-74
2022/08/03 20:51:17;;;;;;;;;;;20.20;99.90;;;;;;6166168;23;19916;-77
2022/08/03 20:53:55;;;;;;;;;;;20.20;99.90;;;;;;6190331;23;20399;-80
2022/08/03 20:56:40;;;;;;;;;;;20.10;99.90;;;;;;6190861;23;19920;-79
